Huvudsida
METAR-TAF:

METAR-TAF

Flygplatser :

Seldovia, Alaska, USA

latitud: 59-27N, longitud: 151-42W, höjd: 9 m

Aktuellt väderrapport

Denna rapport gjordes för 52 minuter sedan, klockan 20:53 UTC
Stilla vind
Temperatur -10°C
Fuktighet 79%
Tryck 998 hPa
Sikt: 16.1 km
Klar himmel

METAR: PASO 192053Z AUTO 00000KT 10SM CLR M10/M13 A2946 RMK AO2 SLP975 I3000 T11001128 51003 TSNO

Tid: 12:45 (21:45 UTC)


TAF: saknas

Aktuella väderrapporter och prognoser från 4000 flygplatser (METAR- och TAF-rapporter).

De tillgängliga stationerna syns som gula och röda prickar på kartan.

För musen över prickarna för att se namnen på stationerna.

Klicka sedan för att få väderrapporter och prognoser.

För att ändra kartan: Klicka på de gröna knapparna med ett svart kors på för att zooma in; den gröna knappen med ett streck på för att zooma ut; eller på de gröna pilarna för angränsande kartor.


METAR-TAF: